createdAt,value
2017-04-20T00:00:15.929Z,103008
2017-04-20T00:01:17.367Z,103012
2017-04-20T00:02:17.496Z,103011
2017-04-20T00:03:17.544Z,103007
2017-04-20T00:04:17.594Z,103008
2017-04-20T00:05:18.430Z,103002
2017-04-20T00:06:18.490Z,103010
2017-04-20T00:07:18.665Z,103004
2017-04-20T00:08:18.722Z,103010
2017-04-20T00:09:18.983Z,103004
2017-04-20T00:10:19.061Z,103011
2017-04-20T00:11:20.207Z,103010
2017-04-20T00:12:20.407Z,103009
2017-04-20T00:13:20.519Z,103004
2017-04-20T00:14:20.586Z,103000
2017-04-20T00:15:20.915Z,103002
2017-04-20T00:16:21.001Z,102997
2017-04-20T00:17:21.012Z,102996
2017-04-20T00:18:21.277Z,102988
2017-04-20T00:19:21.334Z,102997
2017-04-20T00:20:22.220Z,102992
2017-04-20T00:21:22.344Z,102991
2017-04-20T00:22:22.430Z,102995
2017-04-20T00:23:22.567Z,102998
2017-04-20T00:24:23.357Z,102997
2017-04-20T00:25:23.511Z,102998
2017-04-20T00:26:24.345Z,103000
2017-04-20T00:27:24.472Z,102986
2017-04-20T00:28:25.107Z,102988
2017-04-20T00:29:25.126Z,102997
2017-04-20T00:30:25.945Z,102996
2017-04-20T00:31:26.215Z,102993
2017-04-20T00:32:26.504Z,102994
2017-04-20T00:33:26.593Z,102988
2017-04-20T00:34:27.489Z,102990
2017-04-20T00:35:27.725Z,102986
2017-04-20T00:36:27.931Z,102992
2017-04-20T00:37:28.231Z,102991
2017-04-20T00:38:28.375Z,102985
2017-04-20T00:39:29.254Z,102989
2017-04-20T00:40:29.330Z,102983
2017-04-20T00:41:29.458Z,102983
2017-04-20T00:42:29.576Z,102981
2017-04-20T00:43:29.631Z,102987
2017-04-20T00:44:29.733Z,102985
2017-04-20T00:45:30.565Z,102989
2017-04-20T00:46:30.682Z,102981
2017-04-20T00:47:30.750Z,102983
2017-04-20T00:48:30.806Z,102972
2017-04-20T00:49:30.937Z,102980
2017-04-20T00:50:31.081Z,102975
2017-04-20T00:51:31.188Z,102978
2017-04-20T00:52:31.821Z,102970
2017-04-20T00:53:31.903Z,102971
2017-04-20T00:54:32.664Z,102971
2017-04-20T00:55:33.214Z,102975
2017-04-20T00:56:34.038Z,102981
2017-04-20T00:57:34.070Z,102982
2017-04-20T00:58:34.167Z,102973
2017-04-20T00:59:35.186Z,102982
2017-04-20T01:00:35.950Z,102980
2017-04-20T01:01:36.059Z,102973
2017-04-20T01:02:36.952Z,102971
2017-04-20T01:03:37.902Z,102965
2017-04-20T01:04:38.000Z,102969
2017-04-20T01:05:38.057Z,102972
2017-04-20T01:06:38.124Z,102973
2017-04-20T01:07:38.445Z,102972
2017-04-20T01:08:39.074Z,102973
2017-04-20T01:09:39.143Z,102976
2017-04-20T01:10:39.256Z,102967
2017-04-20T01:11:39.304Z,102972
2017-04-20T01:12:39.406Z,102968
2017-04-20T01:13:39.812Z,102976
2017-04-20T01:14:39.874Z,102969
2017-04-20T01:15:39.926Z,102962
2017-04-20T01:16:39.984Z,102965
2017-04-20T01:17:40.830Z,102963
2017-04-20T01:18:40.931Z,102964
2017-04-20T01:19:41.021Z,102963
2017-04-20T01:20:41.126Z,102967
2017-04-20T01:21:41.352Z,102964
2017-04-20T01:22:41.494Z,102968
2017-04-20T01:23:41.608Z,102965
2017-04-20T01:24:41.707Z,102958
2017-04-20T01:25:42.029Z,102965
2017-04-20T01:26:42.122Z,102960
2017-04-20T01:27:42.237Z,102961
2017-04-20T01:28:42.293Z,102962
2017-04-20T01:29:42.570Z,102965
2017-04-20T01:30:42.688Z,102960
2017-04-20T01:31:42.824Z,102958
2017-04-20T01:32:42.887Z,102962
2017-04-20T01:33:43.025Z,102958
2017-04-20T01:34:43.063Z,102965
2017-04-20T01:35:43.109Z,102966
2017-04-20T01:36:43.169Z,102965
2017-04-20T01:37:43.947Z,102970
2017-04-20T01:38:44.055Z,102970
2017-04-20T01:39:44.137Z,102972
2017-04-20T01:40:44.200Z,102968
2017-04-20T01:41:44.228Z,102975
2017-04-20T01:42:44.285Z,102966
2017-04-20T01:43:44.393Z,102975
2017-04-20T01:44:44.456Z,102978
2017-04-20T01:45:44.505Z,102977
2017-04-20T01:46:44.579Z,102974
2017-04-20T01:47:45.449Z,102976
2017-04-20T01:48:45.477Z,102968
2017-04-20T01:49:45.698Z,102978
2017-04-20T01:50:46.077Z,102968
2017-04-20T01:51:46.547Z,102969
2017-04-20T01:52:46.615Z,102972
2017-04-20T01:53:46.638Z,102973
2017-04-20T01:54:46.869Z,102968
2017-04-20T01:55:47.044Z,102962
2017-04-20T01:56:47.133Z,102964
2017-04-20T01:57:48.097Z,102965
2017-04-20T01:58:49.018Z,102968
2017-04-20T01:59:49.144Z,102969
2017-04-20T02:00:50.013Z,102963
2017-04-20T02:01:50.130Z,102964
2017-04-20T02:02:51.689Z,102961
2017-04-20T02:03:52.522Z,102963
2017-04-20T02:04:52.758Z,102958
2017-04-20T02:05:53.452Z,102959
2017-04-20T02:06:54.347Z,102955
2017-04-20T02:07:54.480Z,102955
2017-04-20T02:08:55.301Z,102951
2017-04-20T02:09:55.529Z,102954
2017-04-20T02:10:59.168Z,102956
2017-04-20T02:11:59.249Z,102957
2017-04-20T02:12:59.290Z,102956
2017-04-20T02:13:59.352Z,102954
2017-04-20T02:14:59.433Z,102959
2017-04-20T02:15:59.566Z,102959
2017-04-20T02:16:59.622Z,102960
2017-04-20T02:17:59.698Z,102954
2017-04-20T02:19:00.398Z,102957
2017-04-20T02:20:00.494Z,102955
2017-04-20T02:21:00.586Z,102951
2017-04-20T02:22:02.037Z,102957
2017-04-20T02:23:02.082Z,102952
2017-04-20T02:24:02.898Z,102952
2017-04-20T02:25:02.919Z,102955
2017-04-20T02:26:02.989Z,102950
2017-04-20T02:27:03.097Z,102955
2017-04-20T02:28:04.123Z,102952
2017-04-20T02:29:04.731Z,102951
2017-04-20T02:30:04.789Z,102952
2017-04-20T02:31:05.618Z,102954
2017-04-20T02:32:05.681Z,102955
2017-04-20T02:33:05.737Z,102952
2017-04-20T02:34:05.860Z,102957
2017-04-20T02:35:06.746Z,102956
2017-04-20T02:36:06.946Z,102956
2017-04-20T02:37:07.140Z,102964
2017-04-20T02:38:07.222Z,102963
2017-04-20T02:39:07.369Z,102970
2017-04-20T02:40:08.301Z,102969
2017-04-20T02:41:09.234Z,102970
2017-04-20T02:42:09.336Z,102966
2017-04-20T02:43:09.531Z,102967
2017-04-20T02:44:10.266Z,102965
2017-04-20T02:45:10.996Z,102972
2017-04-20T02:46:11.053Z,102965
2017-04-20T02:47:11.113Z,102965
2017-04-20T02:48:11.240Z,102963
2017-04-20T02:49:11.881Z,102971
2017-04-20T02:50:11.910Z,102961
2017-04-20T02:51:12.699Z,102965
2017-04-20T02:52:12.824Z,102960
2017-04-20T02:53:13.469Z,102955
2017-04-20T02:54:13.558Z,102963
2017-04-20T02:55:13.628Z,102964
2017-04-20T02:56:14.353Z,102965
2017-04-20T02:57:14.516Z,102963
2017-04-20T02:58:14.577Z,102963
2017-04-20T02:59:14.728Z,102962
2017-04-20T03:00:15.379Z,102970
2017-04-20T03:01:16.108Z,102967
2017-04-20T03:02:16.817Z,102963
2017-04-20T03:03:16.925Z,102938
2017-04-20T03:04:17.023Z,102960
2017-04-20T03:05:17.322Z,102954
2017-04-20T03:06:17.981Z,102901
2017-04-20T03:07:18.082Z,102954
2017-04-20T03:08:18.145Z,102958
2017-04-20T03:09:19.132Z,102955
2017-04-20T03:10:19.234Z,102963
2017-04-20T03:11:19.506Z,102953
2017-04-20T03:12:19.603Z,102957
2017-04-20T03:13:19.743Z,102954
2017-04-20T03:14:19.901Z,102952
2017-04-20T03:15:19.992Z,102955
2017-04-20T03:16:20.042Z,102960
2017-04-20T03:17:20.122Z,102965
2017-04-20T03:18:20.203Z,102955
2017-04-20T03:19:20.306Z,102955
2017-04-20T03:20:20.665Z,102955
2017-04-20T03:21:20.858Z,102960
2017-04-20T03:22:21.030Z,102951
2017-04-20T03:23:21.801Z,102956
2017-04-20T03:24:21.932Z,102950
2017-04-20T03:25:22.116Z,102955
2017-04-20T03:26:22.174Z,102952
2017-04-20T03:27:23.550Z,102949
2017-04-20T03:28:23.693Z,102954
2017-04-20T03:29:24.077Z,102956
2017-04-20T03:30:24.858Z,102947
2017-04-20T03:31:25.550Z,102951
2017-04-20T03:32:25.626Z,102953
2017-04-20T03:33:26.517Z,102948
2017-04-20T03:34:26.504Z,102944
2017-04-20T03:35:27.325Z,102957
2017-04-20T03:36:27.465Z,102913
2017-04-20T03:37:28.451Z,102951
2017-04-20T03:38:28.538Z,102950
2017-04-20T03:39:28.726Z,102948
2017-04-20T03:40:29.482Z,102948
2017-04-20T03:41:29.674Z,102943
2017-04-20T03:42:29.709Z,102941
2017-04-20T03:43:30.509Z,102938
2017-04-20T03:44:30.703Z,102944
2017-04-20T03:45:31.414Z,102946
2017-04-20T03:46:32.810Z,102950
2017-04-20T03:47:32.878Z,102942
2017-04-20T03:48:32.933Z,102940
2017-04-20T03:49:33.671Z,102945
2017-04-20T03:50:33.840Z,102938
2017-04-20T03:51:33.905Z,102942
2017-04-20T03:52:34.705Z,102938
2017-04-20T03:53:34.916Z,102936
2017-04-20T03:54:35.069Z,102944
2017-04-20T03:55:36.027Z,102955
2017-04-20T03:56:36.682Z,102941
2017-04-20T03:57:36.754Z,102941
2017-04-20T03:58:36.883Z,102941
2017-04-20T03:59:38.337Z,102943
2017-04-20T04:00:38.455Z,102950
2017-04-20T04:01:38.543Z,102938
2017-04-20T04:02:40.035Z,102943
2017-04-20T04:03:40.857Z,102942
2017-04-20T04:04:41.037Z,102935
2017-04-20T04:05:41.089Z,102941
2017-04-20T04:06:41.115Z,102939
2017-04-20T04:07:41.327Z,102937
2017-04-20T04:08:42.052Z,102932
2017-04-20T04:09:42.257Z,102937
2017-04-20T04:10:42.387Z,102939
2017-04-20T04:11:42.497Z,102940
2017-04-20T04:12:43.166Z,102942
2017-04-20T04:13:43.279Z,102944
2017-04-20T04:14:43.402Z,102948
2017-04-20T04:15:43.458Z,102943
2017-04-20T04:16:44.166Z,102942
2017-04-20T04:17:44.202Z,102949
2017-04-20T04:18:44.402Z,102946
2017-04-20T04:19:44.460Z,102947
2017-04-20T04:20:45.882Z,102942
2017-04-20T04:21:46.018Z,102943
2017-04-20T04:22:46.173Z,102939
2017-04-20T04:23:46.416Z,102948
2017-04-20T04:24:46.524Z,102945
2017-04-20T04:25:46.599Z,102946
2017-04-20T04:26:47.233Z,102943
2017-04-20T04:27:47.297Z,102938
2017-04-20T04:28:47.350Z,102941
2017-04-20T04:29:47.593Z,102943
2017-04-20T04:30:47.669Z,102939
2017-04-20T04:31:48.494Z,102943
2017-04-20T04:32:48.746Z,102940
2017-04-20T04:33:49.098Z,102943
2017-04-20T04:34:49.203Z,102938
2017-04-20T04:35:49.318Z,102935
2017-04-20T04:36:49.477Z,102934
2017-04-20T04:37:49.555Z,102936
2017-04-20T04:38:50.500Z,102942
2017-04-20T04:39:50.591Z,102937
2017-04-20T04:40:51.402Z,102941
2017-04-20T04:41:51.554Z,102945
2017-04-20T04:42:51.644Z,102939
2017-04-20T04:43:51.854Z,102939
2017-04-20T04:44:53.343Z,102940
2017-04-20T04:45:53.401Z,102940
2017-04-20T04:46:53.512Z,102941
2017-04-20T04:47:53.716Z,102937
2017-04-20T04:48:53.790Z,102939
2017-04-20T04:49:53.895Z,102939
2017-04-20T04:50:54.151Z,102936
2017-04-20T04:51:54.259Z,102940
2017-04-20T04:52:54.751Z,102933
2017-04-20T04:53:54.808Z,102937
2017-04-20T04:54:54.909Z,102939
2017-04-20T04:55:57.588Z,102944
2017-04-20T04:56:57.682Z,102939
2017-04-20T04:57:58.804Z,102940
2017-04-20T04:58:58.865Z,102935
2017-04-20T04:59:59.918Z,102942
2017-04-20T05:00:59.981Z,102941
2017-04-20T05:02:00.667Z,102940
2017-04-20T05:03:04.390Z,102932
2017-04-20T05:04:04.522Z,102937
2017-04-20T05:05:04.636Z,102933
2017-04-20T05:06:05.398Z,102938
2017-04-20T05:07:06.177Z,102933
2017-04-20T05:08:06.231Z,102945
2017-04-20T05:09:06.621Z,102940
2017-04-20T05:10:06.655Z,102944
2017-04-20T05:11:06.762Z,102937
2017-04-20T05:12:07.257Z,102934
2017-04-20T05:13:08.158Z,102933
2017-04-20T05:14:08.369Z,102935
2017-04-20T05:15:08.384Z,102935
2017-04-20T05:16:08.477Z,102937
2017-04-20T05:17:08.567Z,102935
2017-04-20T05:18:08.610Z,102943
2017-04-20T05:19:09.883Z,102931
2017-04-20T05:20:10.809Z,102935
2017-04-20T05:21:10.906Z,102935
2017-04-20T05:22:10.988Z,102927
2017-04-20T05:23:11.117Z,102926
2017-04-20T05:24:11.253Z,102935
2017-04-20T05:25:11.317Z,102931
2017-04-20T05:26:11.519Z,102926
2017-04-20T05:27:11.645Z,102921
2017-04-20T05:28:12.591Z,102933
2017-04-20T05:29:13.288Z,102934
2017-04-20T05:30:14.120Z,102920
2017-04-20T05:31:14.315Z,102934
2017-04-20T05:32:14.411Z,102933
2017-04-20T05:33:14.547Z,102938
2017-04-20T05:34:14.652Z,102936
2017-04-20T05:35:14.827Z,102916
2017-04-20T05:36:15.020Z,102935
2017-04-20T05:37:15.064Z,102930
2017-04-20T05:38:15.237Z,102936
2017-04-20T05:39:15.284Z,102935
2017-04-20T05:40:15.512Z,102929
2017-04-20T05:41:15.590Z,102941
2017-04-20T05:42:15.779Z,102942
2017-04-20T05:43:16.573Z,102936
2017-04-20T05:44:16.713Z,102936
2017-04-20T05:45:16.803Z,102938
2017-04-20T05:46:17.524Z,102939
2017-04-20T05:47:18.248Z,102931
2017-04-20T05:48:18.313Z,102928
2017-04-20T05:49:18.421Z,102932
2017-04-20T05:50:19.175Z,102930
2017-04-20T05:51:20.222Z,102931
2017-04-20T05:52:20.394Z,102933
2017-04-20T05:53:20.450Z,102931
2017-04-20T05:54:21.225Z,102933
2017-04-20T05:55:21.258Z,102930
2017-04-20T05:56:21.310Z,102940
2017-04-20T05:57:21.478Z,102938
2017-04-20T05:58:21.623Z,102934
2017-04-20T05:59:21.655Z,102939
2017-04-20T06:00:21.743Z,102934
2017-04-20T06:01:21.777Z,102939
2017-04-20T06:02:22.455Z,102937
2017-04-20T06:03:23.978Z,102933
2017-04-20T06:04:24.091Z,102939
2017-04-20T06:05:25.007Z,102935
2017-04-20T06:06:25.147Z,102940
2017-04-20T06:07:25.297Z,102942
2017-04-20T06:08:25.414Z,102938
2017-04-20T06:09:26.173Z,102936
2017-04-20T06:10:26.203Z,102935
2017-04-20T06:11:26.456Z,102939
2017-04-20T06:12:26.544Z,102938
2017-04-20T06:13:26.585Z,102939
2017-04-20T06:14:26.674Z,102933
2017-04-20T06:15:29.126Z,102937
2017-04-20T06:16:29.233Z,102931
2017-04-20T06:17:29.322Z,102933
2017-04-20T06:18:29.403Z,102939
2017-04-20T06:19:29.454Z,102935
2017-04-20T06:20:29.442Z,102938
2017-04-20T06:21:30.432Z,102934
2017-04-20T06:22:30.660Z,102937
2017-04-20T06:23:30.819Z,102928
2017-04-20T06:24:30.964Z,102929
2017-04-20T06:25:31.224Z,102935
2017-04-20T06:26:31.589Z,102934
2017-04-20T06:27:31.764Z,102929
2017-04-20T06:28:31.846Z,102926
2017-04-20T06:29:32.069Z,102934
2017-04-20T06:30:33.359Z,102933
2017-04-20T06:31:33.470Z,102933
2017-04-20T06:32:33.748Z,102928
2017-04-20T06:33:34.518Z,102937
2017-04-20T06:34:34.638Z,102928
2017-04-20T06:35:35.569Z,102934
2017-04-20T06:36:36.305Z,102925
2017-04-20T06:37:36.371Z,102931
2017-04-20T06:38:36.529Z,102931
2017-04-20T06:39:36.675Z,102932
2017-04-20T06:40:36.719Z,102928
2017-04-20T06:41:37.694Z,102924
2017-04-20T06:42:37.757Z,102929
2017-04-20T06:43:37.921Z,102930
2017-04-20T06:44:37.955Z,102929
2017-04-20T06:45:38.022Z,102928
2017-04-20T06:46:38.124Z,102929
2017-04-20T06:47:38.179Z,102922
2017-04-20T06:48:38.245Z,102929
2017-04-20T06:49:38.429Z,102932
2017-04-20T06:50:39.219Z,102927
2017-04-20T06:51:40.029Z,102930
2017-04-20T06:52:40.151Z,102922
2017-04-20T06:53:40.197Z,102921
2017-04-20T06:54:40.897Z,102925
2017-04-20T06:55:40.974Z,102920
2017-04-20T06:56:41.064Z,102924
2017-04-20T06:57:41.112Z,102923
2017-04-20T06:58:41.230Z,102926
2017-04-20T06:59:41.469Z,102929
2017-04-20T07:00:42.291Z,102925
2017-04-20T07:01:42.419Z,102926
2017-04-20T07:02:53.311Z,102923
2017-04-20T07:03:53.449Z,102922
2017-04-20T07:04:54.554Z,102925
2017-04-20T07:05:55.403Z,102920
2017-04-20T07:06:55.428Z,102918
2017-04-20T07:07:56.292Z,102925
2017-04-20T07:08:56.970Z,102919
2017-04-20T07:09:57.796Z,102918
2017-04-20T07:10:58.604Z,102918
2017-04-20T07:11:58.648Z,102923
2017-04-20T07:12:58.734Z,102927
2017-04-20T07:13:58.798Z,102927
2017-04-20T07:14:58.863Z,102932
2017-04-20T07:15:58.922Z,102922
2017-04-20T07:16:59.000Z,102920
2017-04-20T07:17:59.089Z,102928
2017-04-20T07:18:59.882Z,102919
2017-04-20T07:20:00.431Z,102928
2017-04-20T07:21:00.477Z,102931
2017-04-20T07:22:01.502Z,102925
2017-04-20T07:23:01.685Z,102928
2017-04-20T07:24:01.690Z,102930
2017-04-20T07:25:01.755Z,102930
2017-04-20T07:26:01.821Z,102929
2017-04-20T07:27:02.077Z,102924
2017-04-20T07:28:08.541Z,102924
2017-04-20T07:29:09.706Z,102923
2017-04-20T07:30:09.995Z,102924
2017-04-20T07:31:10.118Z,102922
2017-04-20T07:32:11.055Z,102928
2017-04-20T07:33:11.446Z,102924
2017-04-20T07:34:11.926Z,102926
2017-04-20T07:35:11.955Z,102925
2017-04-20T07:36:12.034Z,102931
2017-04-20T07:37:12.071Z,102927
2017-04-20T07:38:12.224Z,102930
2017-04-20T07:39:12.329Z,102924
2017-04-20T07:40:12.426Z,102927
2017-04-20T07:41:12.553Z,102923
2017-04-20T07:42:12.579Z,102920
2017-04-20T07:43:12.632Z,102912
2017-04-20T07:44:13.346Z,102918
2017-04-20T07:45:13.431Z,102916
2017-04-20T07:46:13.494Z,102927
2017-04-20T07:47:13.569Z,102924
2017-04-20T07:48:13.677Z,102917
2017-04-20T07:49:13.768Z,102917
2017-04-20T07:50:14.511Z,102914
2017-04-20T07:51:14.517Z,102912
2017-04-20T07:52:14.608Z,102912
2017-04-20T07:53:14.653Z,102920
2017-04-20T07:54:14.821Z,102912
2017-04-20T07:55:15.015Z,102905
2017-04-20T07:56:15.091Z,102906
2017-04-20T07:57:15.834Z,102914
2017-04-20T07:58:15.866Z,102910
2017-04-20T07:59:15.981Z,102909
2017-04-20T08:00:16.133Z,102905
2017-04-20T08:01:16.236Z,102895
2017-04-20T08:02:16.314Z,102907
2017-04-20T08:03:17.308Z,102912
2017-04-20T08:04:17.380Z,102902
2017-04-20T08:05:17.472Z,102904
2017-04-20T08:06:17.500Z,102909
2017-04-20T08:07:17.559Z,102906
2017-04-20T08:08:17.602Z,102905
2017-04-20T08:09:17.713Z,102898
2017-04-20T08:10:17.770Z,102904
2017-04-20T08:11:17.796Z,102905
2017-04-20T08:12:17.852Z,102889
2017-04-20T08:13:17.927Z,102891
2017-04-20T08:14:18.074Z,102902
2017-04-20T08:15:18.171Z,102905
2017-04-20T08:16:18.240Z,102896
2017-04-20T08:17:18.277Z,102895
2017-04-20T08:18:18.396Z,102890
2017-04-20T08:19:18.480Z,102895
2017-04-20T08:20:18.612Z,102888
2017-04-20T08:21:18.724Z,102886
2017-04-20T08:22:18.732Z,102891
2017-04-20T08:23:19.532Z,102897
2017-04-20T08:24:20.411Z,102888
2017-04-20T08:25:21.303Z,102884
2017-04-20T08:26:22.046Z,102886
2017-04-20T08:27:22.362Z,102870
2017-04-20T08:28:22.422Z,102885
2017-04-20T08:29:22.639Z,102880
2017-04-20T08:30:22.711Z,102888
2017-04-20T08:31:22.854Z,102882
2017-04-20T08:32:22.996Z,102890
2017-04-20T08:33:23.080Z,102884
2017-04-20T08:34:23.158Z,102880
2017-04-20T08:35:23.202Z,102878
2017-04-20T08:36:23.201Z,102885
2017-04-20T08:37:23.335Z,102881
2017-04-20T08:38:23.495Z,102880
2017-04-20T08:39:23.602Z,102891
2017-04-20T08:40:23.654Z,102890
2017-04-20T08:41:23.814Z,102884
2017-04-20T08:42:23.953Z,102883
2017-04-20T08:43:24.079Z,102882
2017-04-20T08:44:24.536Z,102888
2017-04-20T08:45:24.562Z,102888
2017-04-20T08:46:24.717Z,102896
2017-04-20T08:47:25.877Z,102897
2017-04-20T08:48:25.962Z,102883
2017-04-20T08:49:26.085Z,102895
2017-04-20T08:50:26.903Z,102898
2017-04-20T08:51:26.972Z,102890
2017-04-20T08:52:27.021Z,102888
2017-04-20T08:53:27.101Z,102885
2017-04-20T08:54:27.229Z,102891
2017-04-20T08:55:28.559Z,102886
2017-04-20T08:56:28.717Z,102886
2017-04-20T08:57:28.801Z,102881
2017-04-20T08:58:28.847Z,102889
2017-04-20T08:59:28.926Z,102889
2017-04-20T09:00:29.223Z,102888
2017-04-20T09:01:29.299Z,102887
2017-04-20T09:02:29.375Z,102882
2017-04-20T09:03:29.824Z,102881
2017-04-20T09:04:29.868Z,102886
2017-04-20T09:05:30.745Z,102890
2017-04-20T09:06:30.813Z,102890
2017-04-20T09:07:30.948Z,102885
2017-04-20T09:08:31.100Z,102886
2017-04-20T09:09:37.751Z,102888
2017-04-20T09:10:37.805Z,102884
2017-04-20T09:11:37.953Z,102890
2017-04-20T09:12:38.054Z,102895
2017-04-20T09:13:38.147Z,102889
2017-04-20T09:14:38.206Z,102897
2017-04-20T09:15:38.203Z,102897
2017-04-20T09:16:38.410Z,102887
2017-04-20T09:17:38.549Z,102890
2017-04-20T09:18:39.449Z,102897
2017-04-20T09:19:39.531Z,102905
2017-04-20T09:20:39.570Z,102895
2017-04-20T09:21:39.717Z,102898
2017-04-20T09:22:39.954Z,102896
2017-04-20T09:23:40.014Z,102898
2017-04-20T09:24:40.247Z,102891
2017-04-20T09:25:40.505Z,102896
2017-04-20T09:26:58.508Z,102891
2017-04-20T09:27:58.506Z,102897
2017-04-20T09:28:58.534Z,102900
2017-04-20T09:29:59.203Z,102883
2017-04-20T09:31:02.427Z,102899
2017-04-20T09:32:10.009Z,102898
2017-04-20T09:33:10.230Z,102899
2017-04-20T09:34:10.282Z,102888
2017-04-20T09:35:10.323Z,102885
2017-04-20T09:36:10.391Z,102900
2017-04-20T09:37:10.508Z,102904
2017-04-20T09:38:10.553Z,102890
2017-04-20T09:39:10.585Z,102901
2017-04-20T09:40:10.701Z,102885
2017-04-20T09:41:10.831Z,102896
2017-04-20T09:42:10.958Z,102888
2017-04-20T09:43:10.969Z,102886
2017-04-20T09:44:11.817Z,102882
2017-04-20T09:45:11.897Z,102884
2017-04-20T09:46:12.794Z,102891
2017-04-20T09:47:13.618Z,102881
2017-04-20T09:48:13.655Z,102898
2017-04-20T09:49:14.809Z,102890
2017-04-20T09:50:14.962Z,102888
2017-04-20T09:51:15.054Z,102889
2017-04-20T09:52:15.121Z,102881
2017-04-20T09:53:15.869Z,102878
2017-04-20T09:54:15.914Z,102879
2017-04-20T09:55:16.022Z,102884
2017-04-20T09:56:16.131Z,102880
2017-04-20T09:57:16.147Z,102881
2017-04-20T09:58:16.228Z,102885
2017-04-20T09:59:16.231Z,102889
2017-04-20T10:00:16.274Z,102881
2017-04-20T10:01:16.294Z,102871
2017-04-20T10:02:16.356Z,102874
2017-04-20T10:03:16.358Z,102875
2017-04-20T10:04:16.429Z,102879
2017-04-20T10:05:17.214Z,102876
2017-04-20T10:06:17.363Z,102877
2017-04-20T10:07:18.164Z,102886
2017-04-20T10:08:18.209Z,102880
2017-04-20T10:09:18.349Z,102877
2017-04-20T10:10:18.524Z,102871
2017-04-20T10:11:18.518Z,102871
2017-04-20T10:12:19.291Z,102866
2017-04-20T10:13:19.311Z,102861
2017-04-20T10:14:19.351Z,102859
2017-04-20T10:15:19.367Z,102865
2017-04-20T10:16:20.131Z,102858
2017-04-20T10:17:20.129Z,102857
2017-04-20T10:18:20.268Z,102849
2017-04-20T10:19:20.271Z,102853
2017-04-20T10:20:20.331Z,102852
2017-04-20T10:21:20.457Z,102845
2017-04-20T10:22:20.625Z,102851
2017-04-20T10:23:20.666Z,102852
2017-04-20T10:24:20.714Z,102848
2017-04-20T10:25:20.749Z,102845
2017-04-20T10:26:21.669Z,102842
2017-04-20T10:27:22.451Z,102854
2017-04-20T10:28:22.541Z,102841
2017-04-20T10:29:22.507Z,102852
2017-04-20T10:30:22.523Z,102845
2017-04-20T10:31:22.587Z,102840
2017-04-20T10:32:23.368Z,102839
2017-04-20T10:33:23.435Z,102838
2017-04-20T10:34:23.494Z,102837
2017-04-20T10:35:23.568Z,102839
2017-04-20T10:36:23.623Z,102843
2017-04-20T10:37:23.744Z,102841
2017-04-20T10:38:23.876Z,102834
2017-04-20T10:39:23.871Z,102836
2017-04-20T10:40:24.679Z,102840
2017-04-20T10:41:24.704Z,102843
2017-04-20T10:42:24.782Z,102838
2017-04-20T10:43:24.882Z,102831
2017-04-20T10:44:24.986Z,102833
2017-04-20T10:45:25.027Z,102833
2017-04-20T10:46:25.016Z,102833
2017-04-20T10:47:25.042Z,102829
2017-04-20T10:48:25.098Z,102830
2017-04-20T10:49:25.863Z,102829
2017-04-20T10:50:25.891Z,102832
2017-04-20T10:51:25.940Z,102823
2017-04-20T10:52:26.685Z,102829
2017-04-20T10:53:26.708Z,102825
2017-04-20T10:54:26.838Z,102815
2017-04-20T10:55:26.934Z,102822
2017-04-20T10:56:27.073Z,102829
2017-04-20T10:57:27.385Z,102833
2017-04-20T10:58:27.386Z,102822
2017-04-20T10:59:27.515Z,102819
2017-04-20T11:00:27.586Z,102817
2017-04-20T11:01:27.651Z,102818
2017-04-20T11:02:28.411Z,102805
2017-04-20T11:03:28.427Z,102810
2017-04-20T11:04:28.489Z,102801
2017-04-20T11:05:28.609Z,102799
2017-04-20T11:06:28.849Z,102796
2017-04-20T11:07:29.087Z,102803
2017-04-20T11:08:29.101Z,102803
2017-04-20T11:09:29.214Z,102807
2017-04-20T11:10:29.238Z,102808
2017-04-20T11:11:29.306Z,102807
2017-04-20T11:12:30.085Z,102803
2017-04-20T11:13:30.100Z,102800
2017-04-20T11:14:30.170Z,102795
2017-04-20T11:15:30.112Z,102788
2017-04-20T11:16:30.283Z,102792
2017-04-20T11:17:30.578Z,102792
2017-04-20T11:18:30.604Z,102791
2017-04-20T11:19:30.797Z,102787
2017-04-20T11:20:30.842Z,102782
2017-04-20T11:21:31.649Z,102789
2017-04-20T11:22:31.658Z,102783
2017-04-20T11:23:31.698Z,102783
2017-04-20T11:24:31.679Z,102796
2017-04-20T11:25:32.488Z,102790
2017-04-20T11:26:32.519Z,102789
2017-04-20T11:27:33.657Z,102795
2017-04-20T11:28:33.681Z,102783
2017-04-20T11:29:33.725Z,102776
2017-04-20T11:30:33.786Z,102783
2017-04-20T11:31:33.782Z,102780
2017-04-20T11:32:33.910Z,102780
2017-04-20T11:33:34.345Z,102780
2017-04-20T11:34:34.378Z,102785
2017-04-20T11:35:34.541Z,102788
2017-04-20T11:36:34.662Z,102787
2017-04-20T11:37:34.700Z,102768
2017-04-20T11:38:34.807Z,102768
2017-04-20T11:39:34.863Z,102774
2017-04-20T11:40:34.971Z,102771
2017-04-20T11:41:35.005Z,102783
2017-04-20T11:42:35.029Z,102777
2017-04-20T11:43:35.163Z,102775
2017-04-20T11:44:35.195Z,102772
2017-04-20T11:45:35.254Z,102765
2017-04-20T11:46:35.314Z,102767
2017-04-20T11:47:35.320Z,102761
2017-04-20T11:48:35.709Z,102758
2017-04-20T11:49:36.418Z,102764
2017-04-20T11:50:36.512Z,102770
2017-04-20T11:51:36.711Z,102775
2017-04-20T11:52:37.279Z,102773
2017-04-20T11:53:37.865Z,102768
2017-04-20T11:54:38.090Z,102763
2017-04-20T11:55:38.194Z,102764
2017-04-20T11:56:38.317Z,102755
2017-04-20T11:57:38.386Z,102757
2017-04-20T11:58:38.717Z,102757
2017-04-20T11:59:39.855Z,102766
2017-04-20T12:00:39.883Z,102770
2017-04-20T12:01:39.971Z,102759
2017-04-20T12:02:40.134Z,102763
2017-04-20T12:03:40.295Z,102762
2017-04-20T12:04:40.309Z,102763
2017-04-20T12:05:40.365Z,102752
2017-04-20T12:06:40.379Z,102747
2017-04-20T12:07:40.506Z,102762
2017-04-20T12:08:40.557Z,102749
2017-04-20T12:09:41.530Z,102747
2017-04-20T12:10:41.592Z,102742
2017-04-20T12:11:41.752Z,102750
2017-04-20T12:12:41.809Z,102752
2017-04-20T12:13:42.594Z,102733
2017-04-20T12:14:42.615Z,102738
2017-04-20T12:15:42.628Z,102741
2017-04-20T12:16:42.789Z,102734
2017-04-20T12:17:42.785Z,102743
2017-04-20T12:18:43.125Z,102732
2017-04-20T12:19:43.237Z,102729
2017-04-20T12:20:43.273Z,102742
2017-04-20T12:21:43.351Z,102731
2017-04-20T12:22:43.368Z,102722
2017-04-20T12:23:43.446Z,102731
2017-04-20T12:24:43.465Z,102736
2017-04-20T12:25:43.588Z,102741
2017-04-20T12:26:44.531Z,102735
2017-04-20T12:27:44.558Z,102730
2017-04-20T12:28:44.594Z,102731
2017-04-20T12:29:44.614Z,102731
2017-04-20T12:30:44.633Z,102728
2017-04-20T12:31:44.669Z,102729
2017-04-20T12:32:44.735Z,102730